Time;durP1;ratioP1;P1;durP2;ratioP2;P2;SDS_P1;SDS_P2;PMS_P1;PMS_P2;Temp;Humidity;BMP_temperature;BMP_pressure;BME280_temperature;BME280_humidity;BME280_pressure;Samples;Min_cycle;Max_cycle;Signal;HPM_P1;HPM_P2
2021/10/25 00:00:50;;;;;;;17.00;15.30;;;;;;;;;;5033086;28;20299;-72
2021/10/25 00:03:16;;;;;;;19.13;15.70;;;;;;;;;;5033875;28;20211;-72
2021/10/25 00:05:42;;;;;;;19.50;15.87;;;;;;;;;;5034300;28;20235;-72
2021/10/25 00:08:10;;;;;;;19.07;14.90;;;;;;;;;;5032313;28;20635;-72
2021/10/25 00:10:37;;;;;;;21.30;16.40;;;;;;;;;;5032528;28;20270;-72
2021/10/25 00:13:03;;;;;;;18.90;16.50;;;;;;;;;;5032659;28;20223;-72
2021/10/25 00:15:31;;;;;;;18.20;16.27;;;;;;;;;;5032498;28;20211;-72
2021/10/25 00:17:57;;;;;;;19.73;15.93;;;;;;;;;;5032644;28;20309;-72
2021/10/25 00:20:24;;;;;;;19.20;15.87;;;;;;;;;;5034421;28;20240;-72
2021/10/25 00:22:50;;;;;;;18.70;16.27;;;;;;;;;;5033642;28;20712;-72
2021/10/25 00:25:17;;;;;;;17.23;15.43;;;;;;;;;;5033793;28;20289;-71
2021/10/25 00:27:43;;;;;;;23.67;16.40;;;;;;;;;;5034595;28;20212;-72
2021/10/25 00:30:10;;;;;;;18.67;15.70;;;;;;;;;;5033038;28;20662;-72
2021/10/25 00:32:38;;;;;;;21.40;17.17;;;;;;;;;;5032673;28;20207;-72
2021/10/25 00:35:06;;;;;;;18.47;15.43;;;;;;;;;;5034365;28;20588;-72
2021/10/25 00:37:32;;;;;;;17.53;15.73;;;;;;;;;;5032419;28;20264;-72
2021/10/25 00:39:59;;;;;;;20.80;16.30;;;;;;;;;;5033750;28;20228;-72
2021/10/25 00:42:26;;;;;;;18.83;15.83;;;;;;;;;;5032774;28;20293;-72
2021/10/25 00:44:52;;;;;;;26.13;17.33;;;;;;;;;;5031377;28;20223;-72
2021/10/25 00:47:18;;;;;;;22.80;17.43;;;;;;;;;;5030594;28;20223;-72
2021/10/25 00:49:46;;;;;;;21.47;16.40;;;;;;;;;;5034827;28;20227;-72
2021/10/25 00:52:13;;;;;;;17.03;15.10;;;;;;;;;;5032337;28;20709;-72
2021/10/25 00:54:40;;;;;;;19.17;16.73;;;;;;;;;;5033781;28;21898;-72
2021/10/25 00:57:07;;;;;;;21.03;18.07;;;;;;;;;;5033365;28;20761;-72
2021/10/25 00:59:33;;;;;;;19.43;16.17;;;;;;;;;;5033813;28;20265;-72
2021/10/25 01:02:00;;;;;;;20.30;16.97;;;;;;;;;;5033013;28;20235;-72
2021/10/25 01:04:26;;;;;;;19.70;17.60;;;;;;;;;;5031472;28;20281;-72
2021/10/25 01:06:55;;;;;;;20.93;17.80;;;;;;;;;;5032364;28;20298;-72
2021/10/25 01:09:21;;;;;;;20.10;16.47;;;;;;;;;;5031625;28;20231;-72
2021/10/25 01:11:49;;;;;;;19.60;17.13;;;;;;;;;;5033658;28;20620;-72
2021/10/25 01:14:16;;;;;;;18.27;16.27;;;;;;;;;;5032784;28;20620;-72
2021/10/25 01:16:42;;;;;;;20.50;17.27;;;;;;;;;;5032433;28;20253;-72
2021/10/25 01:19:09;;;;;;;23.50;17.37;;;;;;;;;;5031896;28;20243;-72
2021/10/25 01:21:37;;;;;;;22.13;17.77;;;;;;;;;;5033809;28;20232;-72
2021/10/25 01:24:04;;;;;;;20.43;16.53;;;;;;;;;;5031796;28;20264;-72
2021/10/25 01:26:31;;;;;;;20.70;17.53;;;;;;;;;;5036640;28;20216;-72
2021/10/25 01:28:57;;;;;;;21.07;16.87;;;;;;;;;;5036634;28;20234;-72
2021/10/25 01:31:24;;;;;;;19.97;17.00;;;;;;;;;;5036081;28;20589;-72
2021/10/25 01:33:52;;;;;;;19.53;16.57;;;;;;;;;;5035307;28;20231;-72
2021/10/25 01:36:19;;;;;;;20.13;17.73;;;;;;;;;;5036702;28;20220;-72
2021/10/25 01:38:46;;;;;;;21.70;16.40;;;;;;;;;;5036998;28;20288;-72
2021/10/25 01:41:14;;;;;;;20.90;17.47;;;;;;;;;;5036420;28;20283;-72
2021/10/25 01:43:40;;;;;;;20.80;17.17;;;;;;;;;;5035148;28;20555;-72
2021/10/25 01:46:07;;;;;;;21.77;18.37;;;;;;;;;;5034670;28;20238;-72
2021/10/25 01:48:33;;;;;;;20.70;17.00;;;;;;;;;;5036190;28;20205;-72
2021/10/25 01:51:00;;;;;;;21.77;18.50;;;;;;;;;;5035708;28;20291;-72
2021/10/25 01:53:28;;;;;;;22.03;17.90;;;;;;;;;;5036389;28;20280;-72
2021/10/25 01:56:00;;;;;;;21.77;18.13;;;;;;;;;;5035348;28;20220;-72
2021/10/25 01:58:28;;;;;;;19.63;17.43;;;;;;;;;;5035869;28;20211;-72
2021/10/25 02:00:55;;;;;;;19.57;17.00;;;;;;;;;;5035839;28;20268;-72
2021/10/25 02:03:21;;;;;;;19.87;16.83;;;;;;;;;;5034671;28;20212;-72
2021/10/25 02:05:47;;;;;;;22.27;17.70;;;;;;;;;;5034653;28;20241;-72
2021/10/25 02:08:14;;;;;;;20.20;17.27;;;;;;;;;;5035361;28;20230;-72
2021/10/25 02:10:41;;;;;;;21.23;17.60;;;;;;;;;;5036365;28;20207;-72
2021/10/25 02:13:11;;;;;;;20.60;18.30;;;;;;;;;;5035057;28;20237;-72
2021/10/25 02:15:37;;;;;;;19.93;17.37;;;;;;;;;;5036003;28;20235;-72
2021/10/25 02:18:04;;;;;;;20.40;16.43;;;;;;;;;;5034990;28;20238;-72
2021/10/25 02:20:30;;;;;;;21.30;16.23;;;;;;;;;;5034934;28;20231;-72
2021/10/25 02:22:56;;;;;;;19.77;17.67;;;;;;;;;;5034289;28;20275;-72
2021/10/25 02:25:23;;;;;;;19.47;16.77;;;;;;;;;;5035665;28;20692;-72
2021/10/25 02:27:50;;;;;;;20.37;16.87;;;;;;;;;;5036057;28;20226;-72
2021/10/25 02:30:18;;;;;;;20.17;17.13;;;;;;;;;;5033871;28;20214;-72
2021/10/25 02:32:45;;;;;;;20.97;15.83;;;;;;;;;;5035186;28;20881;-72
2021/10/25 02:35:11;;;;;;;18.67;16.67;;;;;;;;;;5033055;28;20245;-72
2021/10/25 02:37:37;;;;;;;19.57;17.03;;;;;;;;;;5035863;28;20286;-72
2021/10/25 02:40:05;;;;;;;18.03;15.10;;;;;;;;;;5034836;28;20289;-72
2021/10/25 02:42:32;;;;;;;18.33;16.30;;;;;;;;;;5034578;28;20255;-72
2021/10/25 02:44:58;;;;;;;18.00;16.00;;;;;;;;;;5034190;28;20306;-72
2021/10/25 02:47:26;;;;;;;19.27;15.40;;;;;;;;;;5036554;28;20270;-72
2021/10/25 02:49:52;;;;;;;16.67;14.83;;;;;;;;;;5035049;28;20239;-72
2021/10/25 02:52:19;;;;;;;17.93;15.83;;;;;;;;;;5034050;28;20261;-72
2021/10/25 02:54:45;;;;;;;18.77;15.70;;;;;;;;;;5032066;28;20242;-72
2021/10/25 02:57:12;;;;;;;21.83;14.97;;;;;;;;;;5033833;28;20220;-72
2021/10/25 02:59:38;;;;;;;16.80;14.53;;;;;;;;;;5033085;28;20293;-72
2021/10/25 03:02:05;;;;;;;19.23;14.33;;;;;;;;;;5035086;28;20242;-72
2021/10/25 03:04:32;;;;;;;16.87;14.77;;;;;;;;;;5034963;28;20251;-72
2021/10/25 03:06:59;;;;;;;17.57;15.30;;;;;;;;;;5034395;28;20269;-72
2021/10/25 03:09:25;;;;;;;17.13;13.87;;;;;;;;;;5033642;28;20762;-70
2021/10/25 03:11:52;;;;;;;16.50;14.30;;;;;;;;;;5033264;28;20238;-71
2021/10/25 03:14:19;;;;;;;15.07;13.57;;;;;;;;;;5034208;28;20215;-70
2021/10/25 03:16:45;;;;;;;16.57;14.83;;;;;;;;;;5033212;28;20215;-71
2021/10/25 03:19:11;;;;;;;16.83;15.13;;;;;;;;;;5031320;28;20243;-70
2021/10/25 03:21:39;;;;;;;15.53;13.93;;;;;;;;;;5033479;28;20296;-70
2021/10/25 03:24:06;;;;;;;18.67;14.57;;;;;;;;;;5035656;28;20224;-70
2021/10/25 03:26:32;;;;;;;16.10;14.47;;;;;;;;;;5033001;28;20211;-70
2021/10/25 03:28:58;;;;;;;17.37;13.50;;;;;;;;;;5030713;28;20211;-71
2021/10/25 03:31:25;;;;;;;15.83;13.73;;;;;;;;;;5035165;28;20646;-70
2021/10/25 03:33:52;;;;;;;14.73;12.93;;;;;;;;;;5034167;28;20650;-70
2021/10/25 03:36:19;;;;;;;17.93;13.77;;;;;;;;;;5034771;28;20289;-71
2021/10/25 03:38:47;;;;;;;17.40;13.33;;;;;;;;;;5033465;28;20234;-71
2021/10/25 03:41:16;;;;;;;13.83;12.33;;;;;;;;;;5033071;28;20709;-71
2021/10/25 03:43:48;;;;;;;18.07;12.77;;;;;;;;;;5031858;28;20233;-70
2021/10/25 03:46:20;;;;;;;14.90;12.80;;;;;;;;;;5034087;28;20215;-71
2021/10/25 03:48:51;;;;;;;17.03;13.20;;;;;;;;;;5034055;28;20323;-71
2021/10/25 03:51:18;;;;;;;17.60;12.80;;;;;;;;;;5034048;28;20211;-71
2021/10/25 03:53:52;;;;;;;17.23;12.77;;;;;;;;;;5033936;28;20228;-71
2021/10/25 03:56:31;;;;;;;13.33;11.93;;;;;;;;;;5034506;28;20767;-70
2021/10/25 03:59:11;;;;;;;15.97;13.50;;;;;;;;;;5033078;28;21882;-71
2021/10/25 04:01:51;;;;;;;15.10;12.40;;;;;;;;;;5033370;28;20764;-70
2021/10/25 04:04:35;;;;;;;13.30;11.63;;;;;;;;;;5031604;28;20325;-71
2021/10/25 04:26:23;;;;;;;17.00;14.47;;;;;;;;;;5033777;28;20273;-71
2021/10/25 04:28:51;;;;;;;18.13;14.97;;;;;;;;;;5033031;28;20609;-71
2021/10/25 04:31:17;;;;;;;17.43;15.63;;;;;;;;;;5034116;28;20216;-73
2021/10/25 04:33:43;;;;;;;18.10;14.90;;;;;;;;;;5030793;28;20228;-73
2021/10/25 04:36:10;;;;;;;17.53;14.40;;;;;;;;;;5033008;28;20931;-73
2021/10/25 04:38:36;;;;;;;16.00;13.70;;;;;;;;;;5033741;28;20332;-73
2021/10/25 04:41:03;;;;;;;17.00;14.20;;;;;;;;;;5032809;28;20211;-73
2021/10/25 04:43:29;;;;;;;16.47;14.03;;;;;;;;;;5033993;28;20231;-73
2021/10/25 04:45:57;;;;;;;17.03;13.13;;;;;;;;;;5033030;28;20212;-73
2021/10/25 04:48:23;;;;;;;18.03;13.83;;;;;;;;;;5032784;28;20533;-72
2021/10/25 04:50:50;;;;;;;18.30;14.00;;;;;;;;;;5032175;28;20319;-73
2021/10/25 04:53:16;;;;;;;17.57;14.30;;;;;;;;;;5032824;28;20616;-72
2021/10/25 04:55:43;;;;;;;15.10;12.67;;;;;;;;;;5033649;28;20258;-73
2021/10/25 04:58:09;;;;;;;14.93;13.33;;;;;;;;;;5034971;28;20212;-73
2021/10/25 05:00:36;;;;;;;15.13;13.60;;;;;;;;;;5035940;28;20212;-73
2021/10/25 05:03:06;;;;;;;16.13;14.50;;;;;;;;;;5038170;28;20236;-73
2021/10/25 05:05:32;;;;;;;17.53;14.63;;;;;;;;;;5035790;28;20331;-74
2021/10/25 05:07:59;;;;;;;18.93;14.43;;;;;;;;;;5037349;28;20215;-73
2021/10/25 05:10:25;;;;;;;17.57;15.70;;;;;;;;;;5036471;28;20215;-73
2021/10/25 05:12:52;;;;;;;18.10;16.20;;;;;;;;;;5036479;28;20214;-73
2021/10/25 05:15:18;;;;;;;22.63;16.67;;;;;;;;;;5037041;28;20659;-73
2021/10/25 05:17:44;;;;;;;19.50;17.00;;;;;;;;;;5035673;28;20255;-73
2021/10/25 05:20:12;;;;;;;21.93;17.73;;;;;;;;;;5038103;28;20290;-73
2021/10/25 05:22:39;;;;;;;23.67;19.53;;;;;;;;;;5035212;28;20232;-73
2021/10/25 05:25:06;;;;;;;21.90;19.70;;;;;;;;;;5037547;28;20278;-73
2021/10/25 05:27:33;;;;;;;20.40;17.97;;;;;;;;;;5037514;28;20298;-72
2021/10/25 05:29:59;;;;;;;24.93;20.13;;;;;;;;;;5036338;28;20560;-73
2021/10/25 05:32:26;;;;;;;23.77;19.03;;;;;;;;;;5033961;28;20267;-73
2021/10/25 05:34:52;;;;;;;24.03;19.77;;;;;;;;;;5035604;28;20786;-73
2021/10/25 05:37:20;;;;;;;21.77;18.07;;;;;;;;;;5035140;28;20253;-73
2021/10/25 05:39:46;;;;;;;24.30;18.67;;;;;;;;;;5036845;28;20227;-75
2021/10/25 05:42:13;;;;;;;23.30;20.27;;;;;;;;;;5034908;28;20224;-75
2021/10/25 05:44:39;;;;;;;25.70;20.70;;;;;;;;;;5037017;28;20219;-73
2021/10/25 05:47:06;;;;;;;27.20;21.03;;;;;;;;;;5035851;28;20274;-73
2021/10/25 05:49:33;;;;;;;26.13;20.90;;;;;;;;;;5035231;28;20228;-73
2021/10/25 05:52:00;;;;;;;24.90;21.30;;;;;;;;;;5036390;28;20223;-73
2021/10/25 05:54:28;;;;;;;32.20;24.53;;;;;;;;;;5036979;28;20318;-74
2021/10/25 05:56:55;;;;;;;30.17;24.53;;;;;;;;;;5034210;28;20244;-74
2021/10/25 05:59:25;;;;;;;27.80;22.97;;;;;;;;;;5034782;28;20216;-73
2021/10/25 06:01:57;;;;;;;30.43;23.10;;;;;;;;;;5035052;28;20710;-74
2021/10/25 06:04:25;;;;;;;29.60;23.57;;;;;;;;;;5034787;28;20234;-74
2021/10/25 06:06:52;;;;;;;22.97;18.93;;;;;;;;;;5035215;28;20619;-74
2021/10/25 06:09:18;;;;;;;30.20;23.83;;;;;;;;;;5032222;28;20238;-74
2021/10/25 06:11:47;;;;;;;30.80;25.47;;;;;;;;;;5030914;28;20224;-74
2021/10/25 06:14:15;;;;;;;28.20;23.53;;;;;;;;;;5035709;28;20204;-73
2021/10/25 06:16:42;;;;;;;27.23;23.23;;;;;;;;;;5033496;28;20218;-73
2021/10/25 06:19:13;;;;;;;33.40;25.57;;;;;;;;;;5031129;28;20245;-73
2021/10/25 06:21:39;;;;;;;35.90;24.33;;;;;;;;;;5031534;28;20219;-73
2021/10/25 06:24:06;;;;;;;30.13;24.97;;;;;;;;;;5031071;28;20248;-74
2021/10/25 06:26:33;;;;;;;33.20;25.57;;;;;;;;;;5033340;28;20216;-74
2021/10/25 06:29:00;;;;;;;36.00;29.23;;;;;;;;;;5030231;28;20220;-74
2021/10/25 06:31:27;;;;;;;38.33;26.83;;;;;;;;;;5030856;28;20219;-74
2021/10/25 06:33:54;;;;;;;30.60;22.20;;;;;;;;;;5031952;28;20237;-73
2021/10/25 06:36:23;;;;;;;32.63;27.03;;;;;;;;;;5032295;28;20217;-73
2021/10/25 06:38:55;;;;;;;34.83;28.63;;;;;;;;;;5031133;28;20239;-73
2021/10/25 06:41:23;;;;;;;36.87;27.37;;;;;;;;;;5031384;28;20304;-73
2021/10/25 06:43:50;;;;;;;35.37;27.10;;;;;;;;;;5032850;28;20232;-73
2021/10/25 06:46:19;;;;;;;33.67;27.60;;;;;;;;;;5032778;28;20211;-75
2021/10/25 06:48:46;;;;;;;37.43;28.27;;;;;;;;;;5032934;28;20722;-75
2021/10/25 06:51:12;;;;;;;36.47;27.07;;;;;;;;;;5030473;28;20660;-73
2021/10/25 06:53:39;;;;;;;34.80;27.50;;;;;;;;;;5030507;28;21106;-73
2021/10/25 06:56:06;;;;;;;36.50;27.57;;;;;;;;;;5033138;28;20615;-73
2021/10/25 06:58:32;;;;;;;35.70;28.30;;;;;;;;;;5031352;28;20236;-74
2021/10/25 07:01:00;;;;;;;37.70;28.73;;;;;;;;;;5030259;28;20221;-74
2021/10/25 07:03:28;;;;;;;35.93;30.03;;;;;;;;;;5033719;28;20263;-74
2021/10/25 07:05:55;;;;;;;40.70;30.50;;;;;;;;;;5031490;28;20308;-74
2021/10/25 07:08:22;;;;;;;37.93;28.73;;;;;;;;;;5029674;28;20891;-73
2021/10/25 07:10:49;;;;;;;34.97;28.97;;;;;;;;;;5033265;28;20219;-74
2021/10/25 07:13:16;;;;;;;37.50;30.23;;;;;;;;;;5032313;28;20208;-74
2021/10/25 07:15:47;;;;;;;36.37;29.67;;;;;;;;;;5032228;28;20219;-74
2021/10/25 07:18:18;;;;;;;30.17;26.13;;;;;;;;;;5032202;28;20235;-73
2021/10/25 07:21:00;;;;;;;33.43;28.90;;;;;;;;;;5032439;28;20233;-73
2021/10/25 08:02:05;;;;;;;29.93;25.27;;;;;;;;;;5030363;28;20224;-73
2021/10/25 08:05:04;;;;;;;27.87;23.33;;;;;;;;;;5029840;28;20237;-73
2021/10/25 08:07:36;;;;;;;31.73;26.07;;;;;;;;;;5031115;28;20282;-72
2021/10/25 08:10:09;;;;;;;34.10;26.80;;;;;;;;;;5030938;28;20243;-73
2021/10/25 08:12:43;;;;;;;38.10;29.47;;;;;;;;;;5032069;28;20238;-73
2021/10/25 08:15:16;;;;;;;31.27;25.40;;;;;;;;;;5028619;28;20225;-73
2021/10/25 08:17:48;;;;;;;33.60;26.80;;;;;;;;;;5031667;28;21147;-73
2021/10/25 08:20:15;;;;;;;30.53;25.93;;;;;;;;;;5030546;28;21150;-73
2021/10/25 08:22:42;;;;;;;32.67;26.57;;;;;;;;;;5030364;28;20659;-74
2021/10/25 08:25:10;;;;;;;39.63;29.97;;;;;;;;;;5031652;28;20279;-74
2021/10/25 08:27:36;;;;;;;37.20;25.80;;;;;;;;;;5032057;28;20635;-74
2021/10/25 08:30:04;;;;;;;31.43;26.30;;;;;;;;;;5031167;28;20259;-73
2021/10/25 08:32:44;;;;;;;36.47;27.07;;;;;;;;;;5029474;28;20216;-73
2021/10/25 08:40:55;;;;;;;34.33;26.77;;;;;;;;;;5036675;28;20211;-73
2021/10/25 08:43:21;;;;;;;36.10;26.90;;;;;;;;;;5031391;28;20290;-75
2021/10/25 08:45:51;;;;;;;33.70;25.77;;;;;;;;;;5035938;28;20222;-75
2021/10/25 08:48:20;;;;;;;32.33;24.97;;;;;;;;;;5032065;28;20220;-75
2021/10/25 08:50:46;;;;;;;36.27;24.97;;;;;;;;;;5034062;28;20224;-75
2021/10/25 08:53:13;;;;;;;34.83;26.70;;;;;;;;;;5034247;28;20240;-75
2021/10/25 08:55:39;;;;;;;71.87;28.63;;;;;;;;;;5033760;28;20215;-74
2021/10/25 08:58:07;;;;;;;37.53;26.77;;;;;;;;;;5033897;28;20234;-75
2021/10/25 09:00:41;;;;;;;34.40;26.10;;;;;;;;;;5035178;28;20217;-75
2021/10/25 09:03:09;;;;;;;38.33;27.10;;;;;;;;;;5035188;28;20299;-72
2021/10/25 09:05:36;;;;;;;36.53;26.90;;;;;;;;;;5033484;28;20259;-72
2021/10/25 09:08:06;;;;;;;32.47;24.83;;;;;;;;;;5034392;28;20301;-71
2021/10/25 09:10:36;;;;;;;34.53;24.77;;;;;;;;;;5035782;28;20270;-71
2021/10/25 09:13:05;;;;;;;31.87;24.13;;;;;;;;;;5034114;28;20224;-71
2021/10/25 09:15:35;;;;;;;36.50;27.77;;;;;;;;;;5034222;28;20598;-72
2021/10/25 09:18:07;;;;;;;38.20;26.77;;;;;;;;;;5034491;28;20247;-73
2021/10/25 09:20:42;;;;;;;39.77;26.93;;;;;;;;;;5033710;28;20308;-73
2021/10/25 09:23:10;;;;;;;35.80;26.20;;;;;;;;;;5034349;28;20270;-73
2021/10/25 09:25:37;;;;;;;35.03;26.07;;;;;;;;;;5032973;28;20221;-73
2021/10/25 09:28:13;;;;;;;35.10;26.30;;;;;;;;;;5034555;28;20240;-72
2021/10/25 09:30:49;;;;;;;38.50;27.70;;;;;;;;;;5034445;28;20216;-72
2021/10/25 09:33:20;;;;;;;40.20;27.77;;;;;;;;;;5032221;28;20835;-72
2021/10/25 09:35:49;;;;;;;40.80;28.23;;;;;;;;;;5032883;28;20229;-72
2021/10/25 09:38:23;;;;;;;40.17;29.03;;;;;;;;;;5032324;28;20229;-72
2021/10/25 09:49:18;;;;;;;39.23;29.17;;;;;;;;;;5019856;28;20375;-71
2021/10/25 09:51:52;;;;;;;31.40;24.77;;;;;;;;;;5034000;28;20211;-72
2021/10/25 09:54:21;;;;;;;35.70;27.13;;;;;;;;;;5033314;28;20233;-72
2021/10/25 09:57:02;;;;;;;34.90;27.30;;;;;;;;;;5033252;28;20308;-72
2021/10/25 09:59:32;;;;;;;30.87;25.37;;;;;;;;;;5032501;28;20272;-72
2021/10/25 10:02:01;;;;;;;28.40;24.80;;;;;;;;;;5036115;28;20244;-72
2021/10/25 10:04:28;;;;;;;29.83;24.53;;;;;;;;;;5034660;28;20265;-72
2021/10/25 10:06:55;;;;;;;28.63;23.47;;;;;;;;;;5034277;28;20639;-72
2021/10/25 10:09:21;;;;;;;29.23;24.53;;;;;;;;;;5031343;28;20226;-71
2021/10/25 10:11:48;;;;;;;28.27;25.03;;;;;;;;;;5028606;28;20230;-71
2021/10/25 10:14:15;;;;;;;25.37;22.13;;;;;;;;;;5033074;28;20221;-71
2021/10/25 10:16:43;;;;;;;26.13;22.67;;;;;;;;;;5033200;28;20885;-73
2021/10/25 10:19:14;;;;;;;29.00;22.13;;;;;;;;;;5029872;28;20695;-73
2021/10/25 10:21:41;;;;;;;25.93;20.63;;;;;;;;;;5031457;28;20208;-72
2021/10/25 10:24:09;;;;;;;27.80;22.70;;;;;;;;;;5031934;28;20250;-72
2021/10/25 10:26:38;;;;;;;27.50;23.63;;;;;;;;;;5032363;28;20222;-72
2021/10/25 10:29:10;;;;;;;23.97;21.43;;;;;;;;;;5033194;28;20265;-72
2021/10/25 10:31:36;;;;;;;22.97;18.77;;;;;;;;;;5033347;28;20323;-72
2021/10/25 10:34:12;;;;;;;31.47;23.40;;;;;;;;;;5033324;28;20261;-72
2021/10/25 10:36:51;;;;;;;29.07;22.20;;;;;;;;;;5031731;28;20657;-71
2021/10/25 10:39:18;;;;;;;25.27;21.20;;;;;;;;;;5032647;28;20229;-71
2021/10/25 10:41:46;;;;;;;24.53;21.40;;;;;;;;;;5032918;28;20215;-72
2021/10/25 10:44:15;;;;;;;28.83;21.03;;;;;;;;;;5031716;28;20302;-71
2021/10/25 10:46:48;;;;;;;27.13;21.60;;;;;;;;;;5032827;28;20226;-71
2021/10/25 10:49:25;;;;;;;26.10;19.23;;;;;;;;;;5032696;28;20387;-71
2021/10/25 10:55:03;;;;;;;21.60;18.63;;;;;;;;;;5032991;28;21038;-70
2021/10/25 11:00:40;;;;;;;24.10;18.87;;;;;;;;;;5030624;28;20259;-71
2021/10/25 11:03:15;;;;;;;22.87;20.10;;;;;;;;;;5031567;28;20222;-70
2021/10/25 11:05:46;;;;;;;20.63;18.43;;;;;;;;;;5031755;28;20287;-71
2021/10/25 11:08:15;;;;;;;21.10;18.83;;;;;;;;;;5031494;28;20233;-71
2021/10/25 11:10:43;;;;;;;26.37;18.70;;;;;;;;;;5031128;28;20214;-71
2021/10/25 11:13:15;;;;;;;22.57;19.77;;;;;;;;;;5032942;28;20217;-71
2021/10/25 11:15:52;;;;;;;26.00;20.20;;;;;;;;;;5032653;28;20259;-71
2021/10/25 11:18:24;;;;;;;20.80;18.60;;;;;;;;;;5031190;28;20240;-71
2021/10/25 11:20:53;;;;;;;21.50;17.10;;;;;;;;;;5031070;28;20692;-71
2021/10/25 11:23:19;;;;;;;21.67;19.37;;;;;;;;;;5031645;28;20244;-71
2021/10/25 11:25:46;;;;;;;24.47;19.37;;;;;;;;;;5030940;28;20234;-71
2021/10/25 11:28:18;;;;;;;22.83;19.40;;;;;;;;;;5032263;28;20253;-71
2021/10/25 11:30:46;;;;;;;23.30;20.27;;;;;;;;;;5032156;28;20218;-71
2021/10/25 11:33:16;;;;;;;21.67;19.37;;;;;;;;;;5031730;28;20219;-71
2021/10/25 11:35:48;;;;;;;29.90;22.17;;;;;;;;;;5033217;28;20222;-71
2021/10/25 11:38:16;;;;;;;22.53;20.13;;;;;;;;;;5030233;28;20238;-71
2021/10/25 11:40:43;;;;;;;26.37;21.57;;;;;;;;;;5032878;28;20652;-71
2021/10/25 11:43:09;;;;;;;25.50;21.27;;;;;;;;;;5031669;28;20652;-71
2021/10/25 11:45:36;;;;;;;25.43;21.83;;;;;;;;;;5033866;28;20252;-71
2021/10/25 11:48:03;;;;;;;28.17;23.00;;;;;;;;;;5031795;28;20672;-71
2021/10/25 11:50:31;;;;;;;26.73;22.63;;;;;;;;;;5031582;28;20292;-71
2021/10/25 11:53:00;;;;;;;25.47;22.40;;;;;;;;;;5031963;28;20206;-71
2021/10/25 11:55:29;;;;;;;28.90;24.43;;;;;;;;;;5030284;28;20214;-71
2021/10/25 11:57:58;;;;;;;26.17;23.07;;;;;;;;;;5028842;28;20233;-71
2021/10/25 12:00:27;;;;;;;28.30;24.43;;;;;;;;;;5031374;28;20647;-71
2021/10/25 12:02:55;;;;;;;27.47;24.23;;;;;;;;;;5031468;28;20252;-71
2021/10/25 12:05:24;;;;;;;32.47;26.10;;;;;;;;;;5031736;28;20242;-71
2021/10/25 12:07:53;;;;;;;37.13;26.90;;;;;;;;;;5027048;28;20271;-71
2021/10/25 12:10:20;;;;;;;35.57;29.20;;;;;;;;;;5032310;28;20210;-71
2021/10/25 12:12:50;;;;;;;39.90;28.97;;;;;;;;;;5030328;28;20228;-70
2021/10/25 12:15:19;;;;;;;35.87;30.10;;;;;;;;;;5029748;28;20224;-71
2021/10/25 12:17:48;;;;;;;36.27;28.97;;;;;;;;;;5030561;28;21177;-71
2021/10/25 12:20:23;;;;;;;35.13;30.50;;;;;;;;;;5029409;28;21247;-70
2021/10/25 12:22:58;;;;;;;36.87;29.10;;;;;;;;;;5030831;28;20309;-71
2021/10/25 12:25:25;;;;;;;35.27;30.60;;;;;;;;;;5029528;28;20222;-70
2021/10/25 12:27:58;;;;;;;36.67;27.33;;;;;;;;;;5029290;28;20213;-71
2021/10/25 12:30:24;;;;;;;39.77;31.57;;;;;;;;;;5029129;28;20218;-71
2021/10/25 12:32:53;;;;;;;35.90;29.50;;;;;;;;;;5029745;28;20247;-71
2021/10/25 12:35:31;;;;;;;36.90;29.83;;;;;;;;;;5030018;28;20230;-73
2021/10/25 12:37:59;;;;;;;39.60;30.40;;;;;;;;;;5028129;28;20222;-72
2021/10/25 12:40:26;;;;;;;37.07;30.63;;;;;;;;;;5029026;28;20264;-72
2021/10/25 12:43:00;;;;;;;33.70;29.60;;;;;;;;;;5030036;28;20276;-72
2021/10/25 12:45:31;;;;;;;36.80;29.87;;;;;;;;;;5030263;28;20321;-72
2021/10/25 12:47:59;;;;;;;33.43;27.87;;;;;;;;;;5030932;28;20309;-72
2021/10/25 12:50:32;;;;;;;35.93;29.57;;;;;;;;;;5030481;28;20230;-72
2021/10/25 12:52:58;;;;;;;37.10;30.07;;;;;;;;;;5032113;28;20214;-72
2021/10/25 12:55:25;;;;;;;34.90;28.50;;;;;;;;;;5030513;28;20226;-72
2021/10/25 12:57:56;;;;;;;36.80;28.07;;;;;;;;;;5028141;28;21225;-72
2021/10/25 13:00:22;;;;;;;31.10;27.20;;;;;;;;;;5029687;28;20899;-72
2021/10/25 13:02:52;;;;;;;34.03;27.50;;;;;;;;;;5031300;28;20291;-72
2021/10/25 13:05:21;;;;;;;37.60;29.00;;;;;;;;;;5029218;28;20241;-72
2021/10/25 13:07:50;;;;;;;36.27;28.80;;;;;;;;;;5030709;28;20203;-72
2021/10/25 13:10:18;;;;;;;32.30;26.97;;;;;;;;;;5032180;28;20229;-72
2021/10/25 13:12:45;;;;;;;37.17;30.73;;;;;;;;;;5030884;28;20638;-72
2021/10/25 13:15:13;;;;;;;37.77;31.47;;;;;;;;;;5029596;28;20221;-72
2021/10/25 13:17:41;;;;;;;35.30;28.43;;;;;;;;;;5029010;28;20303;-72
2021/10/25 13:20:11;;;;;;;40.63;29.60;;;;;;;;;;5031099;28;20665;-72
2021/10/25 13:22:37;;;;;;;40.90;31.33;;;;;;;;;;5033761;28;20237;-72
2021/10/25 13:25:04;;;;;;;39.73;29.10;;;;;;;;;;5034597;28;20298;-72
2021/10/25 13:27:30;;;;;;;45.80;30.67;;;;;;;;;;5033431;28;20222;-72
2021/10/25 13:29:57;;;;;;;44.07;32.40;;;;;;;;;;5034151;28;20238;-72
2021/10/25 13:32:25;;;;;;;41.57;31.60;;;;;;;;;;5033829;28;20218;-72
2021/10/25 13:34:51;;;;;;;35.93;29.07;;;;;;;;;;5033189;28;20608;-72
2021/10/25 13:37:18;;;;;;;36.83;31.30;;;;;;;;;;5034393;28;20222;-72
2021/10/25 13:39:45;;;;;;;37.30;31.00;;;;;;;;;;5032743;28;20287;-72
2021/10/25 13:42:11;;;;;;;36.70;27.70;;;;;;;;;;5032273;28;20210;-72
2021/10/25 13:44:38;;;;;;;40.37;30.20;;;;;;;;;;5032851;28;20274;-72
2021/10/25 13:47:05;;;;;;;31.73;26.30;;;;;;;;;;5035514;28;20213;-72
2021/10/25 13:49:32;;;;;;;34.97;28.87;;;;;;;;;;5033991;28;20299;-72
2021/10/25 13:51:59;;;;;;;33.43;28.13;;;;;;;;;;5032601;28;20214;-72
2021/10/25 13:54:27;;;;;;;36.97;28.53;;;;;;;;;;5033859;28;20585;-72
2021/10/25 13:56:53;;;;;;;36.67;29.93;;;;;;;;;;5032929;28;20206;-73
2021/10/25 13:59:20;;;;;;;36.77;28.97;;;;;;;;;;5033013;28;20674;-73
2021/10/25 14:01:46;;;;;;;36.70;29.07;;;;;;;;;;5032490;28;20209;-72
2021/10/25 14:04:16;;;;;;;36.17;32.30;;;;;;;;;;5033521;28;20231;-72
2021/10/25 14:06:44;;;;;;;38.07;30.10;;;;;;;;;;5034637;28;21082;-73
2021/10/25 14:09:10;;;;;;;38.73;29.93;;;;;;;;;;5032960;28;20229;-72
2021/10/25 14:11:40;;;;;;;37.27;30.33;;;;;;;;;;5034642;28;20213;-72
2021/10/25 14:14:11;;;;;;;35.20;28.67;;;;;;;;;;5033847;28;20210;-72
2021/10/25 14:16:41;;;;;;;35.53;29.43;;;;;;;;;;5033245;28;20229;-72
2021/10/25 14:19:08;;;;;;;33.50;29.07;;;;;;;;;;5031515;28;20694;-72
2021/10/25 14:21:35;;;;;;;39.93;29.47;;;;;;;;;;5032587;28;20305;-72
2021/10/25 14:24:05;;;;;;;34.40;29.13;;;;;;;;;;5034977;28;20828;-72
2021/10/25 14:26:32;;;;;;;34.30;29.83;;;;;;;;;;5031205;28;20262;-72
2021/10/25 14:28:58;;;;;;;34.57;29.63;;;;;;;;;;5030910;28;20371;-72
2021/10/25 14:31:25;;;;;;;38.57;29.70;;;;;;;;;;5031548;28;20210;-72
2021/10/25 14:33:52;;;;;;;34.80;30.07;;;;;;;;;;5033119;28;20254;-72
2021/10/25 14:36:20;;;;;;;39.07;30.57;;;;;;;;;;5030659;28;20761;-72
2021/10/25 14:38:56;;;;;;;32.53;28.67;;;;;;;;;;5032471;28;20665;-72
2021/10/25 14:41:28;;;;;;;36.27;29.47;;;;;;;;;;5032641;28;20222;-72
2021/10/25 14:43:58;;;;;;;36.60;28.97;;;;;;;;;;5034421;28;20272;-72
2021/10/25 14:46:39;;;;;;;36.23;30.00;;;;;;;;;;5033496;28;20253;-72
2021/10/25 14:49:16;;;;;;;41.30;31.53;;;;;;;;;;5032720;28;20238;-72
2021/10/25 14:54:33;;;;;;;34.43;29.37;;;;;;;;;;5031901;28;20226;-72
2021/10/25 14:57:02;;;;;;;32.60;29.10;;;;;;;;;;5031973;28;20304;-72
2021/10/25 14:59:29;;;;;;;36.73;32.23;;;;;;;;;;5031818;28;20256;-72
2021/10/25 15:01:55;;;;;;;34.67;30.80;;;;;;;;;;5033489;28;20245;-72
2021/10/25 15:04:22;;;;;;;35.73;30.63;;;;;;;;;;5032148;28;20231;-72
2021/10/25 15:06:48;;;;;;;35.77;29.70;;;;;;;;;;5031859;28;20230;-72
2021/10/25 15:09:15;;;;;;;37.10;32.10;;;;;;;;;;5032857;28;20683;-72
2021/10/25 15:11:41;;;;;;;38.23;33.40;;;;;;;;;;5033850;28;20324;-72
2021/10/25 15:14:09;;;;;;;37.87;30.13;;;;;;;;;;5031895;28;20269;-72
2021/10/25 15:16:36;;;;;;;40.93;33.97;;;;;;;;;;5031257;28;20265;-72
2021/10/25 15:19:02;;;;;;;37.37;33.47;;;;;;;;;;5031112;28;20235;-72
2021/10/25 15:21:29;;;;;;;39.43;33.77;;;;;;;;;;5032872;28;20214;-72
2021/10/25 15:23:59;;;;;;;40.67;34.10;;;;;;;;;;5032112;28;20330;-72
2021/10/25 15:26:27;;;;;;;38.47;33.60;;;;;;;;;;5030852;28;20245;-72
2021/10/25 15:28:53;;;;;;;38.30;33.30;;;;;;;;;;5031865;28;20657;-72
2021/10/25 15:31:22;;;;;;;39.17;34.50;;;;;;;;;;5032317;28;20294;-72
2021/10/25 15:33:48;;;;;;;38.57;33.10;;;;;;;;;;5030623;28;20242;-72
2021/10/25 15:36:15;;;;;;;40.00;34.03;;;;;;;;;;5030175;28;20249;-72
2021/10/25 15:38:42;;;;;;;38.37;33.27;;;;;;;;;;5032126;28;20293;-72
2021/10/25 15:41:10;;;;;;;41.40;36.43;;;;;;;;;;5032393;28;20243;-72
2021/10/25 15:43:37;;;;;;;41.23;35.47;;;;;;;;;;5030465;28;20215;-72